sensor_id;sensor_type;location;lat;lon;timestamp;P1;durP1;ratioP1;P2;durP2;ratioP2
31424;SDS011;18054;51.572;7.372;2022-11-30T00:00:26;215.63;;;50.35;;
31424;SDS011;18054;51.572;7.372;2022-11-30T00:02:55;227.90;;;51.97;;
31424;SDS011;18054;51.572;7.372;2022-11-30T00:05:22;188.18;;;48.55;;
31424;SDS011;18054;51.572;7.372;2022-11-30T00:07:50;240.63;;;52.55;;
31424;SDS011;18054;51.572;7.372;2022-11-30T00:10:19;190.45;;;49.95;;
31424;SDS011;18054;51.572;7.372;2022-11-30T00:12:48;190.90;;;46.97;;
31424;SDS011;18054;51.572;7.372;2022-11-30T00:15:16;202.50;;;49.55;;
31424;SDS011;18054;51.572;7.372;2022-11-30T00:17:43;230.32;;;50.50;;
31424;SDS011;18054;51.572;7.372;2022-11-30T00:20:11;209.70;;;48.58;;
31424;SDS011;18054;51.572;7.372;2022-11-30T00:22:39;198.18;;;45.72;;
31424;SDS011;18054;51.572;7.372;2022-11-30T00:25:06;230.93;;;51.97;;
31424;SDS011;18054;51.572;7.372;2022-11-30T00:30:03;208.82;;;48.35;;
31424;SDS011;18054;51.572;7.372;2022-11-30T00:32:30;203.73;;;46.65;;
31424;SDS011;18054;51.572;7.372;2022-11-30T00:34:58;230.00;;;50.33;;
31424;SDS011;18054;51.572;7.372;2022-11-30T00:37:25;227.43;;;51.05;;
31424;SDS011;18054;51.572;7.372;2022-11-30T00:39:52;243.07;;;51.53;;
31424;SDS011;18054;51.572;7.372;2022-11-30T00:42:20;222.75;;;50.53;;
31424;SDS011;18054;51.572;7.372;2022-11-30T00:44:47;231.82;;;49.28;;
31424;SDS011;18054;51.572;7.372;2022-11-30T00:47:16;214.18;;;50.50;;
31424;SDS011;18054;51.572;7.372;2022-11-30T00:49:43;259.58;;;51.33;;
31424;SDS011;18054;51.572;7.372;2022-11-30T00:52:11;212.07;;;48.65;;
31424;SDS011;18054;51.572;7.372;2022-11-30T00:54:38;230.77;;;49.95;;
31424;SDS011;18054;51.572;7.372;2022-11-30T00:57:05;241.75;;;51.47;;
31424;SDS011;18054;51.572;7.372;2022-11-30T00:59:33;260.15;;;52.67;;
31424;SDS011;18054;51.572;7.372;2022-11-30T01:02:00;248.07;;;49.45;;
31424;SDS011;18054;51.572;7.372;2022-11-30T01:04:29;259.67;;;48.90;;
31424;SDS011;18054;51.572;7.372;2022-11-30T01:06:56;251.02;;;50.45;;
31424;SDS011;18054;51.572;7.372;2022-11-30T01:09:24;242.95;;;48.47;;
31424;SDS011;18054;51.572;7.372;2022-11-30T01:11:51;308.13;;;50.35;;
31424;SDS011;18054;51.572;7.372;2022-11-30T01:14:18;261.02;;;51.10;;
31424;SDS011;18054;51.572;7.372;2022-11-30T01:16:47;241.23;;;51.13;;
31424;SDS011;18054;51.572;7.372;2022-11-30T01:19:21;283.38;;;50.55;;
31424;SDS011;18054;51.572;7.372;2022-11-30T01:21:50;302.63;;;51.45;;
31424;SDS011;18054;51.572;7.372;2022-11-30T01:24:18;241.30;;;46.78;;
31424;SDS011;18054;51.572;7.372;2022-11-30T01:26:46;244.02;;;47.20;;
31424;SDS011;18054;51.572;7.372;2022-11-30T01:29:13;205.65;;;46.40;;
31424;SDS011;18054;51.572;7.372;2022-11-30T01:31:40;202.88;;;45.05;;
31424;SDS011;18054;51.572;7.372;2022-11-30T01:34:08;174.52;;;43.67;;
31424;SDS011;18054;51.572;7.372;2022-11-30T01:36:35;165.20;;;43.22;;
31424;SDS011;18054;51.572;7.372;2022-11-30T01:39:06;177.95;;;42.35;;
31424;SDS011;18054;51.572;7.372;2022-11-30T01:41:35;133.70;;;40.33;;
31424;SDS011;18054;51.572;7.372;2022-11-30T01:46:52;128.60;;;39.20;;
31424;SDS011;18054;51.572;7.372;2022-11-30T01:49:22;139.20;;;40.28;;
31424;SDS011;18054;51.572;7.372;2022-11-30T01:51:55;113.55;;;38.28;;
31424;SDS011;18054;51.572;7.372;2022-11-30T01:54:32;94.63;;;36.50;;
31424;SDS011;18054;51.572;7.372;2022-11-30T01:57:01;98.27;;;35.00;;
31424;SDS011;18054;51.572;7.372;2022-11-30T01:59:31;101.20;;;33.85;;
31424;SDS011;18054;51.572;7.372;2022-11-30T02:01:59;87.35;;;33.03;;
31424;SDS011;18054;51.572;7.372;2022-11-30T02:04:27;87.47;;;31.67;;
31424;SDS011;18054;51.572;7.372;2022-11-30T02:06:55;83.32;;;30.42;;
31424;SDS011;18054;51.572;7.372;2022-11-30T02:09:23;74.00;;;28.55;;
31424;SDS011;18054;51.572;7.372;2022-11-30T02:11:52;80.47;;;26.52;;
31424;SDS011;18054;51.572;7.372;2022-11-30T02:14:22;78.95;;;29.20;;
31424;SDS011;18054;51.572;7.372;2022-11-30T02:16:54;87.18;;;29.80;;
31424;SDS011;18054;51.572;7.372;2022-11-30T02:19:33;84.88;;;31.20;;
31424;SDS011;18054;51.572;7.372;2022-11-30T02:22:08;77.90;;;30.90;;
31424;SDS011;18054;51.572;7.372;2022-11-30T02:24:47;93.60;;;31.50;;
31424;SDS011;18054;51.572;7.372;2022-11-30T02:27:27;87.97;;;30.95;;
31424;SDS011;18054;51.572;7.372;2022-11-30T02:29:59;103.65;;;34.53;;
31424;SDS011;18054;51.572;7.372;2022-11-30T02:32:28;93.28;;;34.00;;
31424;SDS011;18054;51.572;7.372;2022-11-30T02:34:57;88.80;;;34.10;;
31424;SDS011;18054;51.572;7.372;2022-11-30T02:37:25;89.75;;;35.70;;
31424;SDS011;18054;51.572;7.372;2022-11-30T02:39:54;85.38;;;34.03;;
31424;SDS011;18054;51.572;7.372;2022-11-30T02:42:21;101.03;;;36.53;;
31424;SDS011;18054;51.572;7.372;2022-11-30T02:44:50;102.60;;;34.90;;
31424;SDS011;18054;51.572;7.372;2022-11-30T02:47:20;105.90;;;37.03;;
31424;SDS011;18054;51.572;7.372;2022-11-30T02:49:49;90.47;;;34.10;;
31424;SDS011;18054;51.572;7.372;2022-11-30T02:52:18;103.22;;;35.55;;
31424;SDS011;18054;51.572;7.372;2022-11-30T02:54:48;92.68;;;36.08;;
31424;SDS011;18054;51.572;7.372;2022-11-30T02:57:15;89.03;;;35.03;;
31424;SDS011;18054;51.572;7.372;2022-11-30T02:59:43;92.72;;;36.55;;
31424;SDS011;18054;51.572;7.372;2022-11-30T03:02:10;92.40;;;34.25;;
31424;SDS011;18054;51.572;7.372;2022-11-30T03:04:39;79.50;;;32.05;;
31424;SDS011;18054;51.572;7.372;2022-11-30T03:07:06;90.35;;;34.15;;
31424;SDS011;18054;51.572;7.372;2022-11-30T03:09:34;94.85;;;35.45;;
31424;SDS011;18054;51.572;7.372;2022-11-30T03:12:01;90.30;;;34.83;;
31424;SDS011;18054;51.572;7.372;2022-11-30T03:14:29;84.57;;;34.55;;
31424;SDS011;18054;51.572;7.372;2022-11-30T03:16:56;81.15;;;35.42;;
31424;SDS011;18054;51.572;7.372;2022-11-30T03:19:23;90.68;;;37.38;;
31424;SDS011;18054;51.572;7.372;2022-11-30T03:21:52;82.57;;;35.80;;
31424;SDS011;18054;51.572;7.372;2022-11-30T03:24:20;86.95;;;36.28;;
31424;SDS011;18054;51.572;7.372;2022-11-30T03:26:47;94.35;;;36.08;;
31424;SDS011;18054;51.572;7.372;2022-11-30T03:29:14;83.90;;;37.30;;
31424;SDS011;18054;51.572;7.372;2022-11-30T03:31:42;85.25;;;35.17;;
31424;SDS011;18054;51.572;7.372;2022-11-30T03:34:09;79.80;;;34.78;;
31424;SDS011;18054;51.572;7.372;2022-11-30T03:36:37;80.20;;;33.88;;
31424;SDS011;18054;51.572;7.372;2022-11-30T03:39:05;80.05;;;36.75;;
31424;SDS011;18054;51.572;7.372;2022-11-30T03:41:33;71.47;;;32.75;;
31424;SDS011;18054;51.572;7.372;2022-11-30T03:44:00;73.07;;;34.45;;
31424;SDS011;18054;51.572;7.372;2022-11-30T03:46:27;66.50;;;31.63;;
31424;SDS011;18054;51.572;7.372;2022-11-30T03:48:55;62.30;;;31.95;;
31424;SDS011;18054;51.572;7.372;2022-11-30T03:51:22;65.15;;;31.95;;
31424;SDS011;18054;51.572;7.372;2022-11-30T03:53:50;66.43;;;30.40;;
31424;SDS011;18054;51.572;7.372;2022-11-30T03:56:18;74.28;;;33.40;;
31424;SDS011;18054;51.572;7.372;2022-11-30T03:58:46;67.18;;;29.98;;
31424;SDS011;18054;51.572;7.372;2022-11-30T04:01:14;71.55;;;32.05;;
31424;SDS011;18054;51.572;7.372;2022-11-30T04:03:42;74.85;;;32.10;;
31424;SDS011;18054;51.572;7.372;2022-11-30T04:06:10;68.60;;;33.20;;
31424;SDS011;18054;51.572;7.372;2022-11-30T04:08:38;67.57;;;31.33;;
31424;SDS011;18054;51.572;7.372;2022-11-30T04:11:06;67.57;;;30.63;;
31424;SDS011;18054;51.572;7.372;2022-11-30T04:13:35;63.63;;;29.40;;
31424;SDS011;18054;51.572;7.372;2022-11-30T04:16:03;64.72;;;31.40;;
31424;SDS011;18054;51.572;7.372;2022-11-30T04:20:58;68.95;;;30.63;;
31424;SDS011;18054;51.572;7.372;2022-11-30T04:23:27;68.18;;;30.13;;
31424;SDS011;18054;51.572;7.372;2022-11-30T04:25:55;71.25;;;32.42;;
31424;SDS011;18054;51.572;7.372;2022-11-30T04:28:23;64.07;;;30.35;;
31424;SDS011;18054;51.572;7.372;2022-11-30T04:30:52;58.50;;;29.67;;
31424;SDS011;18054;51.572;7.372;2022-11-30T04:33:19;66.25;;;32.10;;
31424;SDS011;18054;51.572;7.372;2022-11-30T04:35:47;66.00;;;32.70;;
31424;SDS011;18054;51.572;7.372;2022-11-30T04:38:15;64.20;;;31.27;;
31424;SDS011;18054;51.572;7.372;2022-11-30T04:40:43;63.28;;;30.58;;
31424;SDS011;18054;51.572;7.372;2022-11-30T04:43:11;55.58;;;29.10;;
31424;SDS011;18054;51.572;7.372;2022-11-30T04:48:07;60.75;;;30.00;;
31424;SDS011;18054;51.572;7.372;2022-11-30T04:50:35;58.05;;;29.60;;
31424;SDS011;18054;51.572;7.372;2022-11-30T04:53:02;58.42;;;29.80;;
31424;SDS011;18054;51.572;7.372;2022-11-30T04:55:30;62.28;;;30.63;;
31424;SDS011;18054;51.572;7.372;2022-11-30T04:57:57;68.53;;;30.17;;
31424;SDS011;18054;51.572;7.372;2022-11-30T05:00:24;67.80;;;31.33;;
31424;SDS011;18054;51.572;7.372;2022-11-30T05:02:54;69.22;;;31.20;;
31424;SDS011;18054;51.572;7.372;2022-11-30T05:05:23;70.35;;;31.88;;
31424;SDS011;18054;51.572;7.372;2022-11-30T05:07:51;70.30;;;32.05;;
31424;SDS011;18054;51.572;7.372;2022-11-30T05:10:20;61.15;;;29.63;;
31424;SDS011;18054;51.572;7.372;2022-11-30T05:12:48;73.50;;;31.60;;
31424;SDS011;18054;51.572;7.372;2022-11-30T05:15:16;75.50;;;31.55;;
31424;SDS011;18054;51.572;7.372;2022-11-30T05:17:44;70.40;;;32.45;;
31424;SDS011;18054;51.572;7.372;2022-11-30T05:20:11;65.38;;;30.25;;
31424;SDS011;18054;51.572;7.372;2022-11-30T05:22:40;58.17;;;29.20;;
31424;SDS011;18054;51.572;7.372;2022-11-30T05:25:07;74.28;;;31.92;;
31424;SDS011;18054;51.572;7.372;2022-11-30T05:27:35;71.63;;;31.10;;
31424;SDS011;18054;51.572;7.372;2022-11-30T05:32:30;63.60;;;29.40;;
31424;SDS011;18054;51.572;7.372;2022-11-30T05:34:59;69.57;;;30.83;;
31424;SDS011;18054;51.572;7.372;2022-11-30T05:37:26;70.88;;;30.25;;
31424;SDS011;18054;51.572;7.372;2022-11-30T05:39:55;71.20;;;31.35;;
31424;SDS011;18054;51.572;7.372;2022-11-30T05:42:22;65.60;;;30.10;;
31424;SDS011;18054;51.572;7.372;2022-11-30T05:44:50;69.32;;;32.42;;
31424;SDS011;18054;51.572;7.372;2022-11-30T05:47:17;73.10;;;31.85;;
31424;SDS011;18054;51.572;7.372;2022-11-30T05:49:44;70.13;;;31.42;;
31424;SDS011;18054;51.572;7.372;2022-11-30T05:52:12;70.45;;;31.48;;
31424;SDS011;18054;51.572;7.372;2022-11-30T05:54:39;68.80;;;31.55;;
31424;SDS011;18054;51.572;7.372;2022-11-30T05:57:08;62.92;;;30.40;;
31424;SDS011;18054;51.572;7.372;2022-11-30T05:59:35;64.10;;;32.25;;
31424;SDS011;18054;51.572;7.372;2022-11-30T06:02:03;65.32;;;30.92;;
31424;SDS011;18054;51.572;7.372;2022-11-30T06:04:31;66.03;;;31.35;;
31424;SDS011;18054;51.572;7.372;2022-11-30T06:06:58;68.88;;;32.33;;
31424;SDS011;18054;51.572;7.372;2022-11-30T06:09:26;66.30;;;31.20;;
31424;SDS011;18054;51.572;7.372;2022-11-30T06:11:53;59.13;;;30.15;;
31424;SDS011;18054;51.572;7.372;2022-11-30T06:14:22;61.10;;;30.90;;
31424;SDS011;18054;51.572;7.372;2022-11-30T06:16:49;65.93;;;30.95;;
31424;SDS011;18054;51.572;7.372;2022-11-30T06:19:17;62.33;;;30.10;;
31424;SDS011;18054;51.572;7.372;2022-11-30T06:21:44;66.85;;;32.15;;
31424;SDS011;18054;51.572;7.372;2022-11-30T06:24:11;62.90;;;31.30;;
31424;SDS011;18054;51.572;7.372;2022-11-30T06:26:39;66.03;;;31.85;;
31424;SDS011;18054;51.572;7.372;2022-11-30T06:29:07;74.80;;;32.90;;
31424;SDS011;18054;51.572;7.372;2022-11-30T06:31:36;68.00;;;32.38;;
31424;SDS011;18054;51.572;7.372;2022-11-30T06:34:04;61.88;;;31.10;;
31424;SDS011;18054;51.572;7.372;2022-11-30T06:36:31;72.25;;;32.30;;
31424;SDS011;18054;51.572;7.372;2022-11-30T06:39:02;71.05;;;30.85;;
31424;SDS011;18054;51.572;7.372;2022-11-30T06:43:57;71.70;;;32.50;;
31424;SDS011;18054;51.572;7.372;2022-11-30T06:46:24;65.78;;;31.20;;
31424;SDS011;18054;51.572;7.372;2022-11-30T06:48:53;70.78;;;31.50;;
31424;SDS011;18054;51.572;7.372;2022-11-30T06:51:21;64.60;;;31.90;;
31424;SDS011;18054;51.572;7.372;2022-11-30T06:53:48;68.00;;;32.58;;
31424;SDS011;18054;51.572;7.372;2022-11-30T06:56:15;63.20;;;32.67;;
31424;SDS011;18054;51.572;7.372;2022-11-30T06:58:43;67.40;;;31.27;;
31424;SDS011;18054;51.572;7.372;2022-11-30T07:01:11;66.72;;;31.20;;
31424;SDS011;18054;51.572;7.372;2022-11-30T07:03:39;65.30;;;31.35;;
31424;SDS011;18054;51.572;7.372;2022-11-30T07:06:09;71.68;;;32.08;;
31424;SDS011;18054;51.572;7.372;2022-11-30T07:08:36;67.90;;;31.70;;
31424;SDS011;18054;51.572;7.372;2022-11-30T07:11:04;71.40;;;31.60;;
31424;SDS011;18054;51.572;7.372;2022-11-30T07:13:31;68.05;;;32.30;;
31424;SDS011;18054;51.572;7.372;2022-11-30T07:16:01;66.60;;;33.10;;
31424;SDS011;18054;51.572;7.372;2022-11-30T07:18:29;70.00;;;32.45;;
31424;SDS011;18054;51.572;7.372;2022-11-30T07:20:58;70.43;;;32.40;;
31424;SDS011;18054;51.572;7.372;2022-11-30T07:23:28;69.25;;;33.00;;
31424;SDS011;18054;51.572;7.372;2022-11-30T07:26:21;67.20;;;30.90;;
31424;SDS011;18054;51.572;7.372;2022-11-30T07:28:48;81.30;;;32.38;;
31424;SDS011;18054;51.572;7.372;2022-11-30T07:31:20;70.60;;;33.78;;
31424;SDS011;18054;51.572;7.372;2022-11-30T07:33:48;75.57;;;33.30;;
31424;SDS011;18054;51.572;7.372;2022-11-30T07:36:16;75.03;;;34.05;;
31424;SDS011;18054;51.572;7.372;2022-11-30T07:38:45;70.22;;;35.03;;
31424;SDS011;18054;51.572;7.372;2022-11-30T07:41:13;68.70;;;33.97;;
31424;SDS011;18054;51.572;7.372;2022-11-30T07:43:40;73.20;;;33.78;;
31424;SDS011;18054;51.572;7.372;2022-11-30T07:46:08;75.63;;;35.78;;
31424;SDS011;18054;51.572;7.372;2022-11-30T07:48:36;70.13;;;33.60;;
31424;SDS011;18054;51.572;7.372;2022-11-30T07:51:03;72.85;;;33.83;;
31424;SDS011;18054;51.572;7.372;2022-11-30T07:56:03;71.43;;;32.95;;
31424;SDS011;18054;51.572;7.372;2022-11-30T07:58:31;75.90;;;33.70;;
31424;SDS011;18054;51.572;7.372;2022-11-30T08:00:59;68.10;;;32.60;;
31424;SDS011;18054;51.572;7.372;2022-11-30T08:03:27;73.57;;;36.60;;
31424;SDS011;18054;51.572;7.372;2022-11-30T08:06:02;67.93;;;35.45;;
31424;SDS011;18054;51.572;7.372;2022-11-30T08:08:32;70.53;;;35.65;;
31424;SDS011;18054;51.572;7.372;2022-11-30T08:11:00;72.28;;;33.78;;
31424;SDS011;18054;51.572;7.372;2022-11-30T08:13:29;71.78;;;35.75;;
31424;SDS011;18054;51.572;7.372;2022-11-30T08:15:59;72.05;;;35.83;;
31424;SDS011;18054;51.572;7.372;2022-11-30T08:18:27;66.28;;;33.38;;
31424;SDS011;18054;51.572;7.372;2022-11-30T08:20:57;67.32;;;32.50;;
31424;SDS011;18054;51.572;7.372;2022-11-30T08:23:26;72.95;;;34.40;;
31424;SDS011;18054;51.572;7.372;2022-11-30T08:25:54;76.05;;;34.75;;
31424;SDS011;18054;51.572;7.372;2022-11-30T08:28:21;71.97;;;33.92;;
31424;SDS011;18054;51.572;7.372;2022-11-30T08:30:50;69.45;;;32.08;;
31424;SDS011;18054;51.572;7.372;2022-11-30T08:33:17;70.72;;;32.38;;
31424;SDS011;18054;51.572;7.372;2022-11-30T08:35:45;64.78;;;30.45;;
31424;SDS011;18054;51.572;7.372;2022-11-30T08:38:12;73.30;;;33.03;;
31424;SDS011;18054;51.572;7.372;2022-11-30T08:40:40;76.15;;;34.10;;
31424;SDS011;18054;51.572;7.372;2022-11-30T08:43:07;74.07;;;35.53;;
31424;SDS011;18054;51.572;7.372;2022-11-30T08:45:34;69.47;;;34.47;;
31424;SDS011;18054;51.572;7.372;2022-11-30T08:48:03;69.70;;;33.45;;
31424;SDS011;18054;51.572;7.372;2022-11-30T08:50:31;71.38;;;34.05;;
31424;SDS011;18054;51.572;7.372;2022-11-30T08:52:58;71.50;;;32.75;;
31424;SDS011;18054;51.572;7.372;2022-11-30T08:55:31;67.55;;;32.65;;
31424;SDS011;18054;51.572;7.372;2022-11-30T08:57:59;69.65;;;33.88;;
31424;SDS011;18054;51.572;7.372;2022-11-30T09:00:26;71.97;;;33.75;;
31424;SDS011;18054;51.572;7.372;2022-11-30T09:02:54;90.35;;;40.40;;
31424;SDS011;18054;51.572;7.372;2022-11-30T09:05:23;79.20;;;35.45;;
31424;SDS011;18054;51.572;7.372;2022-11-30T09:07:50;76.60;;;35.30;;
31424;SDS011;18054;51.572;7.372;2022-11-30T09:10:18;86.25;;;36.60;;
31424;SDS011;18054;51.572;7.372;2022-11-30T09:12:45;84.30;;;37.95;;
31424;SDS011;18054;51.572;7.372;2022-11-30T09:15:13;74.07;;;35.10;;
31424;SDS011;18054;51.572;7.372;2022-11-30T09:17:42;74.88;;;33.08;;
31424;SDS011;18054;51.572;7.372;2022-11-30T09:20:10;81.40;;;35.10;;
31424;SDS011;18054;51.572;7.372;2022-11-30T09:22:39;88.40;;;39.47;;
31424;SDS011;18054;51.572;7.372;2022-11-30T09:25:08;92.85;;;41.38;;
31424;SDS011;18054;51.572;7.372;2022-11-30T09:27:35;88.43;;;41.47;;
31424;SDS011;18054;51.572;7.372;2022-11-30T09:30:03;68.15;;;32.15;;
31424;SDS011;18054;51.572;7.372;2022-11-30T09:32:30;64.85;;;30.30;;
31424;SDS011;18054;51.572;7.372;2022-11-30T09:34:58;61.50;;;31.00;;
31424;SDS011;18054;51.572;7.372;2022-11-30T09:37:25;61.35;;;29.60;;
31424;SDS011;18054;51.572;7.372;2022-11-30T09:39:54;66.30;;;30.13;;
31424;SDS011;18054;51.572;7.372;2022-11-30T09:42:24;67.18;;;30.20;;
31424;SDS011;18054;51.572;7.372;2022-11-30T09:44:55;64.15;;;30.52;;
31424;SDS011;18054;51.572;7.372;2022-11-30T09:47:28;64.20;;;31.35;;
31424;SDS011;18054;51.572;7.372;2022-11-30T09:50:00;68.85;;;33.03;;
31424;SDS011;18054;51.572;7.372;2022-11-30T09:52:31;63.40;;;28.65;;
31424;SDS011;18054;51.572;7.372;2022-11-30T09:55:01;64.97;;;30.38;;
31424;SDS011;18054;51.572;7.372;2022-11-30T09:57:32;69.25;;;30.52;;
31424;SDS011;18054;51.572;7.372;2022-11-30T10:00:01;67.20;;;29.50;;
31424;SDS011;18054;51.572;7.372;2022-11-30T10:02:37;52.93;;;26.93;;
31424;SDS011;18054;51.572;7.372;2022-11-30T10:05:10;55.30;;;27.05;;
31424;SDS011;18054;51.572;7.372;2022-11-30T10:07:42;56.33;;;27.58;;
31424;SDS011;18054;51.572;7.372;2022-11-30T10:10:16;57.08;;;27.60;;
31424;SDS011;18054;51.572;7.372;2022-11-30T10:13:06;58.63;;;27.17;;
31424;SDS011;18054;51.572;7.372;2022-11-30T10:15:40;60.00;;;27.50;;
31424;SDS011;18054;51.572;7.372;2022-11-30T10:18:14;60.33;;;28.40;;
31424;SDS011;18054;51.572;7.372;2022-11-30T10:20:54;59.85;;;25.55;;
31424;SDS011;18054;51.572;7.372;2022-11-30T10:23:28;54.58;;;26.52;;
31424;SDS011;18054;51.572;7.372;2022-11-30T10:26:00;55.97;;;26.08;;
31424;SDS011;18054;51.572;7.372;2022-11-30T10:28:33;60.15;;;26.42;;
31424;SDS011;18054;51.572;7.372;2022-11-30T10:31:13;54.97;;;26.42;;
31424;SDS011;18054;51.572;7.372;2022-11-30T10:36:08;49.05;;;24.77;;
31424;SDS011;18054;51.572;7.372;2022-11-30T10:38:38;57.25;;;26.00;;
31424;SDS011;18054;51.572;7.372;2022-11-30T10:41:09;68.00;;;27.65;;
31424;SDS011;18054;51.572;7.372;2022-11-30T10:43:39;62.22;;;26.38;;
31424;SDS011;18054;51.572;7.372;2022-11-30T10:46:09;56.25;;;28.00;;
31424;SDS011;18054;51.572;7.372;2022-11-30T10:48:44;61.60;;;28.17;;
31424;SDS011;18054;51.572;7.372;2022-11-30T10:51:13;60.13;;;28.05;;
31424;SDS011;18054;51.572;7.372;2022-11-30T10:53:41;52.20;;;25.92;;
31424;SDS011;18054;51.572;7.372;2022-11-30T10:56:10;55.03;;;26.25;;
31424;SDS011;18054;51.572;7.372;2022-11-30T10:58:38;50.75;;;24.98;;
31424;SDS011;18054;51.572;7.372;2022-11-30T11:01:07;46.13;;;25.50;;
31424;SDS011;18054;51.572;7.372;2022-11-30T11:03:35;50.53;;;24.30;;
31424;SDS011;18054;51.572;7.372;2022-11-30T11:06:04;55.38;;;27.35;;
31424;SDS011;18054;51.572;7.372;2022-11-30T11:08:32;73.00;;;29.42;;
31424;SDS011;18054;51.572;7.372;2022-11-30T11:11:00;48.53;;;24.58;;
31424;SDS011;18054;51.572;7.372;2022-11-30T11:13:36;59.42;;;26.55;;
31424;SDS011;18054;51.572;7.372;2022-11-30T11:16:04;62.22;;;27.02;;
31424;SDS011;18054;51.572;7.372;2022-11-30T11:18:32;51.10;;;25.63;;
31424;SDS011;18054;51.572;7.372;2022-11-30T11:21:01;54.03;;;25.83;;
31424;SDS011;18054;51.572;7.372;2022-11-30T11:23:32;61.08;;;28.73;;
31424;SDS011;18054;51.572;7.372;2022-11-30T11:26:00;61.80;;;27.10;;
31424;SDS011;18054;51.572;7.372;2022-11-30T11:28:28;51.20;;;25.60;;
31424;SDS011;18054;51.572;7.372;2022-11-30T11:30:57;58.20;;;27.73;;
31424;SDS011;18054;51.572;7.372;2022-11-30T11:33:25;59.35;;;28.77;;
31424;SDS011;18054;51.572;7.372;2022-11-30T11:35:53;61.50;;;27.80;;
31424;SDS011;18054;51.572;7.372;2022-11-30T11:38:22;67.28;;;27.80;;
31424;SDS011;18054;51.572;7.372;2022-11-30T11:40:50;70.55;;;28.55;;
31424;SDS011;18054;51.572;7.372;2022-11-30T11:43:18;66.43;;;29.90;;
31424;SDS011;18054;51.572;7.372;2022-11-30T11:45:49;60.08;;;28.77;;
31424;SDS011;18054;51.572;7.372;2022-11-30T11:48:26;63.13;;;28.13;;
31424;SDS011;18054;51.572;7.372;2022-11-30T11:50:55;65.57;;;29.85;;
31424;SDS011;18054;51.572;7.372;2022-11-30T11:53:40;65.88;;;29.33;;
31424;SDS011;18054;51.572;7.372;2022-11-30T11:56:19;72.55;;;29.02;;
31424;SDS011;18054;51.572;7.372;2022-11-30T11:58:49;76.35;;;29.85;;
31424;SDS011;18054;51.572;7.372;2022-11-30T12:01:20;68.72;;;28.08;;
31424;SDS011;18054;51.572;7.372;2022-11-30T12:04:15;75.93;;;29.38;;
31424;SDS011;18054;51.572;7.372;2022-11-30T12:06:44;70.55;;;28.98;;
31424;SDS011;18054;51.572;7.372;2022-11-30T12:09:13;73.65;;;30.40;;
31424;SDS011;18054;51.572;7.372;2022-11-30T12:11:43;76.90;;;30.10;;
31424;SDS011;18054;51.572;7.372;2022-11-30T12:14:11;81.15;;;30.83;;
31424;SDS011;18054;51.572;7.372;2022-11-30T12:16:42;70.45;;;29.42;;
31424;SDS011;18054;51.572;7.372;2022-11-30T12:19:14;81.35;;;31.48;;
31424;SDS011;18054;51.572;7.372;2022-11-30T12:21:46;84.47;;;30.92;;
31424;SDS011;18054;51.572;7.372;2022-11-30T12:24:20;73.97;;;30.40;;
31424;SDS011;18054;51.572;7.372;2022-11-30T12:26:52;78.05;;;32.00;;
31424;SDS011;18054;51.572;7.372;2022-11-30T12:29:22;90.20;;;34.72;;
31424;SDS011;18054;51.572;7.372;2022-11-30T12:31:58;79.50;;;29.00;;
31424;SDS011;18054;51.572;7.372;2022-11-30T12:34:31;74.35;;;28.23;;
31424;SDS011;18054;51.572;7.372;2022-11-30T12:37:04;80.50;;;30.38;;
31424;SDS011;18054;51.572;7.372;2022-11-30T12:39:39;75.13;;;27.88;;
31424;SDS011;18054;51.572;7.372;2022-11-30T12:42:10;83.47;;;30.20;;
31424;SDS011;18054;51.572;7.372;2022-11-30T12:44:42;79.88;;;29.85;;
31424;SDS011;18054;51.572;7.372;2022-11-30T12:47:19;72.72;;;28.40;;
31424;SDS011;18054;51.572;7.372;2022-11-30T12:49:56;86.60;;;30.58;;
31424;SDS011;18054;51.572;7.372;2022-11-30T12:52:30;77.57;;;29.92;;
31424;SDS011;18054;51.572;7.372;2022-11-30T12:55:03;80.95;;;29.52;;
31424;SDS011;18054;51.572;7.372;2022-11-30T12:57:34;75.60;;;30.10;;
31424;SDS011;18054;51.572;7.372;2022-11-30T13:00:05;80.05;;;28.85;;
31424;SDS011;18054;51.572;7.372;2022-11-30T13:02:47;72.85;;;29.13;;
31424;SDS011;18054;51.572;7.372;2022-11-30T13:05:23;82.63;;;28.52;;
31424;SDS011;18054;51.572;7.372;2022-11-30T13:07:54;70.28;;;28.52;;
31424;SDS011;18054;51.572;7.372;2022-11-30T13:10:24;78.05;;;29.45;;
31424;SDS011;18054;51.572;7.372;2022-11-30T13:12:53;67.35;;;27.13;;
31424;SDS011;18054;51.572;7.372;2022-11-30T13:15:22;69.88;;;27.20;;
31424;SDS011;18054;51.572;7.372;2022-11-30T13:17:51;65.72;;;27.30;;
31424;SDS011;18054;51.572;7.372;2022-11-30T13:20:20;65.60;;;26.52;;
31424;SDS011;18054;51.572;7.372;2022-11-30T13:22:51;76.18;;;27.48;;
31424;SDS011;18054;51.572;7.372;2022-11-30T13:25:21;66.95;;;25.63;;
31424;SDS011;18054;51.572;7.372;2022-11-30T13:28:11;69.53;;;24.17;;
31424;SDS011;18054;51.572;7.372;2022-11-30T13:30:42;62.63;;;25.95;;
31424;SDS011;18054;51.572;7.372;2022-11-30T13:36:19;67.82;;;24.92;;
31424;SDS011;18054;51.572;7.372;2022-11-30T13:38:56;62.17;;;25.73;;
31424;SDS011;18054;51.572;7.372;2022-11-30T13:41:34;71.13;;;23.93;;
31424;SDS011;18054;51.572;7.372;2022-11-30T13:44:03;71.70;;;24.73;;
31424;SDS011;18054;51.572;7.372;2022-11-30T13:46:31;60.05;;;25.05;;
31424;SDS011;18054;51.572;7.372;2022-11-30T13:49:09;47.17;;;21.45;;
31424;SDS011;18054;51.572;7.372;2022-11-30T13:51:38;46.60;;;20.73;;
31424;SDS011;18054;51.572;7.372;2022-11-30T13:56:55;46.22;;;19.05;;
31424;SDS011;18054;51.572;7.372;2022-11-30T13:59:32;46.10;;;19.70;;
31424;SDS011;18054;51.572;7.372;2022-11-30T14:04:47;44.63;;;20.13;;
31424;SDS011;18054;51.572;7.372;2022-11-30T14:07:34;43.03;;;19.52;;
31424;SDS011;18054;51.572;7.372;2022-11-30T14:10:02;47.63;;;20.83;;
31424;SDS011;18054;51.572;7.372;2022-11-30T14:12:45;45.90;;;19.38;;
31424;SDS011;18054;51.572;7.372;2022-11-30T14:15:26;42.35;;;20.67;;
31424;SDS011;18054;51.572;7.372;2022-11-30T14:17:56;41.72;;;18.33;;
31424;SDS011;18054;51.572;7.372;2022-11-30T14:20:25;44.00;;;20.58;;
31424;SDS011;18054;51.572;7.372;2022-11-30T14:23:01;49.22;;;21.83;;
31424;SDS011;18054;51.572;7.372;2022-11-30T14:25:29;49.63;;;19.80;;
31424;SDS011;18054;51.572;7.372;2022-11-30T14:27:58;38.50;;;18.73;;
31424;SDS011;18054;51.572;7.372;2022-11-30T14:30:26;41.88;;;18.65;;
31424;SDS011;18054;51.572;7.372;2022-11-30T14:32:58;49.67;;;22.23;;
31424;SDS011;18054;51.572;7.372;2022-11-30T14:35:28;44.00;;;20.83;;
31424;SDS011;18054;51.572;7.372;2022-11-30T14:37:56;48.60;;;20.17;;
31424;SDS011;18054;51.572;7.372;2022-11-30T14:40:26;49.67;;;23.25;;
31424;SDS011;18054;51.572;7.372;2022-11-30T14:42:55;40.42;;;20.30;;
31424;SDS011;18054;51.572;7.372;2022-11-30T14:45:24;44.33;;;21.70;;
31424;SDS011;18054;51.572;7.372;2022-11-30T14:47:57;47.55;;;21.52;;
31424;SDS011;18054;51.572;7.372;2022-11-30T14:50:29;47.70;;;21.95;;
31424;SDS011;18054;51.572;7.372;2022-11-30T14:53:00;42.22;;;21.85;;
31424;SDS011;18054;51.572;7.372;2022-11-30T14:55:31;49.90;;;21.25;;
31424;SDS011;18054;51.572;7.372;2022-11-30T14:58:03;43.20;;;20.95;;
31424;SDS011;18054;51.572;7.372;2022-11-30T15:00:36;47.40;;;21.55;;